Главная страница
METAR-TAF:

METAR-TAF

Аэропорты :

Хартум, Судан

широта: 15-36N, долгота: 032-33E, высота над уровнем моря: 382 м

Текущие метеонаблюдения

Эта сводка был подготовлена 34 минут назад, в 14:00 UTC
Ветер 8 Узел от северно-северо-западный
Температура 41°C
Влажность 5%
Давление 1007 hPa
Видимость 10 км и более
Нет облачности ниже 1500 м, и нет кучево-дождевой облачности

METAR: HSSS 251400Z 33008KT CAVOK 41/M06 Q1007 NOSIG

Время: 17:34 (14:34 UTC)

Прогноз

Эта сводка был подготовлена 3 часа и 34 минут назад, в 11:00 UTC
Прогноз действительный с 25-го 12 UTC до 26-го 18 UTC
Ветер 6 Узел от северно-северо-западный с порывами до 16 Узел
Видимость 10 км и более
Нет облачности ниже 1500 м, и нет кучево-дождевой облачности
временами
С 25-го 18 UTC до 25-го 21 UTC
Видимость: 6000 м

TAF: HSSS 251100Z 2512/2618 34006G16KT CAVOK TEMPO 2518/2521 6000

Метеонаблюдения и прогнозы для более 4000 аэропортов (сводки METAR и TAF).

Имеющиеся станции представлены на карте желтыми и красными точками.

Чтобы увидеть название станции, наведите на нее мышь.

Затем щелкните, чтобы увидеть метеонаблюдения и метеопрогнозы.

Управление картой: чтобы увеличить масштаб, щелкните зеленые кнопки с черным крестиком; чтобы уменьшить масштаб, щелкните зеленую кнопку с тире; для просмотра соседних карт щелкайте зеленые стрелки.


METAR-TAF: